createdAt,value
2018-11-13T00:09:28.497Z,0.0
2018-11-13T00:20:13.695Z,0.0
2018-11-13T00:30:27.140Z,0.0
2018-11-13T00:40:40.756Z,0.0
2018-11-13T00:51:56.973Z,0.0
2018-11-13T01:02:11.762Z,0.0
2018-11-13T01:13:35.393Z,0.0
2018-11-13T01:24:24.351Z,0.0
2018-11-13T01:45:37.645Z,0.0
2018-11-13T01:56:07.731Z,0.0
2018-11-13T02:07:04.085Z,0.0
2018-11-13T02:17:21.625Z,0.0
2018-11-13T02:27:56.915Z,0.0
2018-11-13T02:38:18.464Z,0.0
2018-11-13T02:59:21.509Z,0.0
2018-11-13T03:10:30.232Z,0.0
2018-11-13T03:20:59.362Z,0.0
2018-11-13T03:31:18.840Z,0.0
2018-11-13T03:41:45.081Z,0.0
2018-11-13T03:52:05.020Z,0.0
2018-11-13T04:03:04.662Z,0.0
2018-11-13T04:13:48.614Z,0.0
2018-11-13T04:24:39.268Z,0.0
2018-11-13T04:34:53.252Z,0.0
2018-11-13T04:55:57.145Z,0.0
2018-11-13T05:06:24.643Z,0.0
2018-11-13T05:17:48.395Z,0.0
2018-11-13T05:28:36.445Z,0.0
2018-11-13T05:51:09.350Z,0.0
2018-11-13T06:01:24.074Z,0.0
2018-11-13T06:12:11.486Z,0.0
2018-11-13T06:22:30.882Z,8.0
2018-11-13T06:32:48.160Z,36.0
2018-11-13T06:43:17.454Z,128.0
2018-11-13T06:54:20.982Z,288.0
2018-11-13T07:04:39.797Z,320.0
2018-11-13T07:30:18.575Z,628.0
2018-11-13T07:41:12.266Z,656.0
2018-11-13T07:52:07.352Z,936.0
2018-11-13T08:02:54.193Z,1124.0
2018-11-13T08:13:46.711Z,1132.0
2018-11-13T08:24:04.200Z,684.0
2018-11-13T08:34:19.381Z,776.0
2018-11-13T08:47:45.344Z,2096.0
2018-11-13T09:27:41.730Z,7856.0
2018-11-13T10:05:24.457Z,6612.0
2018-11-13T10:41:17.198Z,1064.0
2018-11-13T11:03:47.514Z,3152.0
2018-11-13T11:14:41.992Z,26400.0
2018-11-13T11:24:57.023Z,29664.0
2018-11-13T11:51:05.378Z,5768.0
2018-11-13T12:03:31.438Z,13724.0
2018-11-13T12:29:59.259Z,73792.0
2018-11-13T12:40:14.150Z,72256.0
2018-11-13T12:51:00.804Z,35744.0
2018-11-13T13:02:56.269Z,20416.0
2018-11-13T13:14:50.158Z,26176.0
2018-11-13T13:26:41.612Z,60576.0
2018-11-13T13:37:01.796Z,49696.0
2018-11-13T13:48:08.849Z,46272.0
2018-11-13T13:58:31.307Z,4508.0
2018-11-13T14:08:50.777Z,45568.0
2018-11-13T14:19:40.864Z,28064.0
2018-11-13T14:34:16.487Z,18208.0
2018-11-13T14:46:09.883Z,2688.0
2018-11-13T14:57:19.466Z,1132.0
2018-11-13T15:08:13.440Z,1180.0
2018-11-13T15:19:02.785Z,888.0
2018-11-13T15:31:45.800Z,584.0
2018-11-13T15:42:42.923Z,248.0
2018-11-13T15:53:49.478Z,88.0
2018-11-13T16:06:03.501Z,20.0
2018-11-13T16:28:10.024Z,0.0
2018-11-13T16:46:04.197Z,0.0
2018-11-13T16:58:49.330Z,0.0
2018-11-13T17:49:40.812Z,0.0
2018-11-13T18:13:33.445Z,0.0
2018-11-13T18:54:46.196Z,0.0
2018-11-13T19:05:38.741Z,0.0
2018-11-13T19:47:21.039Z,0.0
